Time;durP1;ratioP1;P1;durP2;ratioP2;P2;SDS_P1;SDS_P2;PMS_P1;PMS_P2;Temp;Humidity;BMP_temperature;BMP_pressure;BME280_temperature;BME280_humidity;BME280_pressure;Samples;Min_cycle;Max_cycle;Signal;HPM_P1;HPM_P2
2023/09/25 00:00:19;;;;;;;2.07;1.87;;;;;;;;;;5088890;28;20236;-87
2023/09/25 00:02:47;;;;;;;3.33;1.70;;;;;;;;;;5084684;28;20692;-87
2023/09/25 00:05:16;;;;;;;3.37;1.87;;;;;;;;;;5086469;28;20224;-87
2023/09/25 00:07:43;;;;;;;2.13;2.03;;;;;;;;;;5085478;28;20277;-87
2023/09/25 00:10:11;;;;;;;2.83;1.97;;;;;;;;;;5082694;28;20745;-87
2023/09/25 00:12:38;;;;;;;2.00;1.90;;;;;;;;;;5083819;28;20208;-87
2023/09/25 00:15:06;;;;;;;1.70;1.60;;;;;;;;;;5086315;28;20217;-87
2023/09/25 00:17:33;;;;;;;3.40;2.13;;;;;;;;;;5086637;28;20233;-88
2023/09/25 00:20:04;;;;;;;2.03;1.90;;;;;;;;;;5086230;28;20224;-87
2023/09/25 00:22:31;;;;;;;2.30;2.07;;;;;;;;;;5086696;28;20262;-88
2023/09/25 00:24:58;;;;;;;1.90;1.80;;;;;;;;;;5082758;28;20605;-88
2023/09/25 00:27:26;;;;;;;2.03;1.93;;;;;;;;;;5089788;28;20595;-87
2023/09/25 00:29:53;;;;;;;2.10;2.00;;;;;;;;;;5085963;28;20233;-87
2023/09/25 00:32:20;;;;;;;2.50;2.30;;;;;;;;;;5086423;28;20205;-87
2023/09/25 00:34:47;;;;;;;2.73;1.90;;;;;;;;;;5084057;28;20233;-87
2023/09/25 00:37:16;;;;;;;2.57;2.37;;;;;;;;;;5082647;28;20252;-87
2023/09/25 00:39:44;;;;;;;2.37;2.07;;;;;;;;;;5082747;28;20233;-87
2023/09/25 00:42:11;;;;;;;1.90;1.80;;;;;;;;;;5086002;28;20284;-87
2023/09/25 00:44:38;;;;;;;2.00;1.90;;;;;;;;;;5076845;28;20241;-87
2023/09/25 00:47:08;;;;;;;1.90;1.80;;;;;;;;;;5092070;28;20224;-88
2023/09/25 00:49:35;;;;;;;5.73;2.00;;;;;;;;;;5093692;28;20232;-88
2023/09/25 00:52:02;;;;;;;2.20;2.00;;;;;;;;;;5085861;28;20210;-87
2023/09/25 00:54:33;;;;;;;2.10;1.87;;;;;;;;;;5094043;28;20284;-87
2023/09/25 00:57:00;;;;;;;1.67;1.57;;;;;;;;;;5096213;28;20708;-87
2023/09/25 00:59:28;;;;;;;1.90;1.80;;;;;;;;;;5097141;28;20241;-87
2023/09/25 01:01:55;;;;;;;3.97;2.10;;;;;;;;;;5096368;28;20572;-87
2023/09/25 01:04:25;;;;;;;2.13;2.00;;;;;;;;;;5099663;28;20573;-87
2023/09/25 01:06:52;;;;;;;2.10;2.00;;;;;;;;;;5089756;28;20224;-88
2023/09/25 01:09:19;;;;;;;1.80;1.70;;;;;;;;;;5093664;28;20239;-88
2023/09/25 01:11:48;;;;;;;1.90;1.80;;;;;;;;;;5094139;28;20232;-88
2023/09/25 01:14:15;;;;;;;2.10;1.90;;;;;;;;;;5093467;28;20241;-87
2023/09/25 01:16:42;;;;;;;1.93;1.83;;;;;;;;;;5093664;28;20270;-87
2023/09/25 01:19:09;;;;;;;2.20;2.00;;;;;;;;;;5093175;28;20282;-88
2023/09/25 01:21:37;;;;;;;2.00;1.90;;;;;;;;;;5093814;28;20286;-87
2023/09/25 01:24:07;;;;;;;1.80;1.70;;;;;;;;;;5093415;28;20240;-88
2023/09/25 01:26:35;;;;;;;1.93;1.77;;;;;;;;;;5093867;28;20676;-88
2023/09/25 01:29:02;;;;;;;3.70;2.10;;;;;;;;;;5093123;28;20258;-88
2023/09/25 01:31:30;;;;;;;2.20;2.10;;;;;;;;;;5093792;28;20299;-88
2023/09/25 01:33:57;;;;;;;3.37;1.80;;;;;;;;;;5092746;28;20208;-88
2023/09/25 01:36:24;;;;;;;2.20;2.00;;;;;;;;;;5093653;28;20235;-87
2023/09/25 01:38:51;;;;;;;1.50;1.50;;;;;;;;;;5092708;28;20214;-88
2023/09/25 01:41:19;;;;;;;2.30;2.20;;;;;;;;;;5093602;28;20209;-87
2023/09/25 01:43:47;;;;;;;1.73;1.73;;;;;;;;;;5093235;28;20224;-87
2023/09/25 01:46:14;;;;;;;3.87;2.13;;;;;;;;;;5115341;22;20248;-86
2023/09/25 01:48:41;;;;;;;2.40;1.80;;;;;;;;;;5080984;28;20221;-85
2023/09/25 01:51:11;;;;;;;1.93;1.83;;;;;;;;;;5085262;28;20717;-85
2023/09/25 01:53:38;;;;;;;2.57;1.83;;;;;;;;;;5086301;28;20246;-85
2023/09/25 01:56:12;;;;;;;1.80;1.70;;;;;;;;;;5081460;28;20222;-85
2023/09/25 01:58:41;;;;;;;1.90;1.80;;;;;;;;;;5061502;28;20210;-85
2023/09/25 02:01:08;;;;;;;1.70;1.67;;;;;;;;;;5053334;28;20233;-85
2023/09/25 02:03:35;;;;;;;1.80;1.70;;;;;;;;;;5061574;28;20213;-85
2023/09/25 02:06:02;;;;;;;1.40;1.33;;;;;;;;;;5063700;28;20717;-85
2023/09/25 02:08:29;;;;;;;1.70;1.70;;;;;;;;;;5066719;28;20226;-85
2023/09/25 02:10:57;;;;;;;1.80;1.70;;;;;;;;;;5061022;28;20589;-85
2023/09/25 02:13:24;;;;;;;1.93;1.80;;;;;;;;;;5061670;28;20210;-85
2023/09/25 02:15:52;;;;;;;1.80;1.70;;;;;;;;;;5061518;28;20752;-85
2023/09/25 02:18:19;;;;;;;1.93;1.83;;;;;;;;;;5064352;28;20229;-84
2023/09/25 02:20:47;;;;;;;2.27;2.07;;;;;;;;;;5063477;28;20229;-85
2023/09/25 02:23:14;;;;;;;1.70;1.60;;;;;;;;;;5061806;28;20246;-85
2023/09/25 02:25:41;;;;;;;2.00;1.90;;;;;;;;;;5060734;28;20229;-85
2023/09/25 02:28:08;;;;;;;2.00;1.80;;;;;;;;;;5051615;28;20229;-86
2023/09/25 02:30:36;;;;;;;2.10;2.00;;;;;;;;;;5060343;28;20230;-82
2023/09/25 02:33:04;;;;;;;2.00;1.90;;;;;;;;;;5060118;28;20218;-83
2023/09/25 02:35:32;;;;;;;1.80;1.70;;;;;;;;;;5060465;28;20609;-83
2023/09/25 02:37:59;;;;;;;2.23;1.70;;;;;;;;;;5062963;28;20291;-83
2023/09/25 02:40:26;;;;;;;2.20;1.97;;;;;;;;;;5057925;28;20706;-82
2023/09/25 02:42:53;;;;;;;1.90;1.80;;;;;;;;;;5061982;28;20676;-83
2023/09/25 02:45:20;;;;;;;2.53;1.80;;;;;;;;;;5063602;28;20248;-83
2023/09/25 02:47:47;;;;;;;3.37;1.93;;;;;;;;;;5063260;28;20240;-83
2023/09/25 02:50:16;;;;;;;2.17;1.97;;;;;;;;;;5060225;28;20230;-83
2023/09/25 02:52:44;;;;;;;2.00;1.90;;;;;;;;;;5068758;28;20205;-81
2023/09/25 02:55:11;;;;;;;2.40;2.20;;;;;;;;;;5052127;28;20288;-83
2023/09/25 02:57:38;;;;;;;1.97;1.87;;;;;;;;;;5060793;28;20238;-83
2023/09/25 03:00:11;;;;;;;1.80;1.70;;;;;;;;;;5062715;28;20229;-86
2023/09/25 03:02:38;;;;;;;2.53;1.67;;;;;;;;;;5060569;28;20241;-85
2023/09/25 03:05:06;;;;;;;2.23;2.07;;;;;;;;;;5062287;28;20621;-85
2023/09/25 03:07:34;;;;;;;1.90;1.80;;;;;;;;;;5063867;28;20225;-85
2023/09/25 03:10:01;;;;;;;2.27;2.07;;;;;;;;;;5061008;28;20244;-85
2023/09/25 03:12:29;;;;;;;1.80;1.70;;;;;;;;;;5060221;28;20206;-85
2023/09/25 03:14:57;;;;;;;2.30;2.10;;;;;;;;;;5067997;28;20240;-85
2023/09/25 03:17:24;;;;;;;3.47;2.10;;;;;;;;;;5060012;28;20225;-85
2023/09/25 03:19:52;;;;;;;2.63;2.43;;;;;;;;;;5060178;28;20703;-84
2023/09/25 03:22:19;;;;;;;2.20;2.10;;;;;;;;;;5059319;28;20206;-85
2023/09/25 03:24:48;;;;;;;2.30;2.13;;;;;;;;;;5059834;28;20233;-85
2023/09/25 03:27:15;;;;;;;2.53;2.33;;;;;;;;;;5063595;28;20275;-86
2023/09/25 03:29:42;;;;;;;2.30;2.20;;;;;;;;;;5062188;28;20233;-85
2023/09/25 03:32:09;;;;;;;2.30;2.20;;;;;;;;;;5059874;28;20194;-85
2023/09/25 03:34:36;;;;;;;2.23;2.13;;;;;;;;;;5059379;28;20226;-85
2023/09/25 03:37:03;;;;;;;2.30;2.10;;;;;;;;;;5062019;28;20229;-85
2023/09/25 03:39:30;;;;;;;2.40;2.20;;;;;;;;;;5062843;28;20232;-85
2023/09/25 03:41:59;;;;;;;2.37;2.23;;;;;;;;;;5061610;28;20218;-84
2023/09/25 03:44:26;;;;;;;2.67;2.43;;;;;;;;;;5059480;28;20229;-85
2023/09/25 03:46:53;;;;;;;2.97;2.33;;;;;;;;;;5060562;28;20642;-85
2023/09/25 03:49:20;;;;;;;2.90;2.70;;;;;;;;;;5062565;28;20702;-85
2023/09/25 03:51:47;;;;;;;2.53;2.33;;;;;;;;;;5063014;28;20236;-85
2023/09/25 03:54:15;;;;;;;2.50;2.30;;;;;;;;;;5060128;28;20256;-85
2023/09/25 03:56:42;;;;;;;2.23;2.10;;;;;;;;;;5068003;28;20261;-85
2023/09/25 03:59:11;;;;;;;2.93;2.23;;;;;;;;;;5061760;28;20645;-85
2023/09/25 04:01:38;;;;;;;2.47;2.27;;;;;;;;;;5063381;28;20231;-85
2023/09/25 04:04:06;;;;;;;2.03;1.93;;;;;;;;;;5060830;28;20233;-85
2023/09/25 04:06:34;;;;;;;2.40;2.20;;;;;;;;;;5060213;28;20700;-85
2023/09/25 04:09:01;;;;;;;2.20;2.10;;;;;;;;;;5067204;28;20206;-85
2023/09/25 04:11:28;;;;;;;2.60;2.40;;;;;;;;;;5059918;28;20198;-84
2023/09/25 04:13:57;;;;;;;2.70;2.10;;;;;;;;;;5067615;28;20209;-85
2023/09/25 04:16:27;;;;;;;2.80;2.53;;;;;;;;;;5059776;28;20202;-85
2023/09/25 04:18:54;;;;;;;7.83;2.50;;;;;;;;;;5059685;28;20651;-86
2023/09/25 04:21:21;;;;;;;2.50;2.33;;;;;;;;;;5063431;28;20206;-85
2023/09/25 04:23:48;;;;;;;2.23;2.10;;;;;;;;;;5062315;28;20247;-86
2023/09/25 04:26:16;;;;;;;2.60;2.50;;;;;;;;;;5051191;28;20222;-85
2023/09/25 04:28:43;;;;;;;2.50;2.23;;;;;;;;;;5059718;28;20206;-85
2023/09/25 04:31:11;;;;;;;2.30;2.20;;;;;;;;;;5067199;28;20218;-85
2023/09/25 04:33:40;;;;;;;2.37;2.27;;;;;;;;;;5059535;28;20676;-85
2023/09/25 04:36:10;;;;;;;7.00;2.40;;;;;;;;;;5058604;28;20579;-85
2023/09/25 04:38:37;;;;;;;2.37;2.27;;;;;;;;;;5059562;28;20557;-85
2023/09/25 04:41:04;;;;;;;2.20;2.10;;;;;;;;;;5063710;28;20614;-85
2023/09/25 04:43:32;;;;;;;3.47;2.33;;;;;;;;;;5060944;28;20228;-84
2023/09/25 04:46:00;;;;;;;2.70;2.50;;;;;;;;;;5062616;28;20303;-85
2023/09/25 04:48:29;;;;;;;2.67;2.47;;;;;;;;;;5063074;28;20226;-86
2023/09/25 04:50:58;;;;;;;2.50;2.40;;;;;;;;;;5063299;28;20642;-86
2023/09/25 04:53:25;;;;;;;2.57;2.43;;;;;;;;;;5066891;28;20219;-85
2023/09/25 04:55:52;;;;;;;3.10;2.80;;;;;;;;;;5065829;28;20226;-86
2023/09/25 04:58:19;;;;;;;2.67;2.47;;;;;;;;;;5066419;28;20229;-85
2023/09/25 05:00:48;;;;;;;2.60;2.40;;;;;;;;;;5069957;28;20379;-85
2023/09/25 05:03:15;;;;;;;2.77;2.57;;;;;;;;;;5065071;28;20229;-86
2023/09/25 05:05:42;;;;;;;3.40;3.10;;;;;;;;;;5062963;28;20234;-85
2023/09/25 05:08:10;;;;;;;5.37;3.57;;;;;;;;;;5074196;28;20229;-86
2023/09/25 05:10:37;;;;;;;4.97;3.20;;;;;;;;;;5066313;28;20240;-86
2023/09/25 05:13:04;;;;;;;3.53;3.23;;;;;;;;;;5066239;28;20202;-87
2023/09/25 05:15:31;;;;;;;3.53;3.23;;;;;;;;;;5068692;28;20712;-86
2023/09/25 05:17:59;;;;;;;4.17;3.60;;;;;;;;;;5063593;28;20230;-87
2023/09/25 05:20:26;;;;;;;3.73;3.43;;;;;;;;;;5065415;28;20237;-87
2023/09/25 05:22:54;;;;;;;4.47;3.43;;;;;;;;;;5065598;28;20631;-87
2023/09/25 05:25:22;;;;;;;4.97;3.33;;;;;;;;;;5061979;28;20222;-87
2023/09/25 05:27:50;;;;;;;5.53;3.40;;;;;;;;;;5062027;28;20226;-86
2023/09/25 05:30:18;;;;;;;3.87;3.37;;;;;;;;;;5057324;28;20233;-87
2023/09/25 05:32:46;;;;;;;3.37;3.07;;;;;;;;;;5066371;28;20240;-87
2023/09/25 05:35:13;;;;;;;5.93;3.40;;;;;;;;;;5065620;28;20236;-86
2023/09/25 05:37:41;;;;;;;3.13;2.83;;;;;;;;;;5065638;28;20225;-86
2023/09/25 05:40:10;;;;;;;5.30;3.07;;;;;;;;;;5063103;28;20239;-86
2023/09/25 05:42:38;;;;;;;6.13;3.43;;;;;;;;;;5062591;28;20213;-86
2023/09/25 05:45:06;;;;;;;3.93;3.00;;;;;;;;;;5061950;28;20236;-87
2023/09/25 05:47:33;;;;;;;3.67;2.87;;;;;;;;;;5050450;28;20235;-86
2023/09/25 05:50:00;;;;;;;3.20;2.90;;;;;;;;;;5041702;28;20231;-86
2023/09/25 05:52:28;;;;;;;3.33;3.03;;;;;;;;;;5042322;28;20206;-86
2023/09/25 05:54:55;;;;;;;3.00;2.70;;;;;;;;;;5041896;28;20226;-86
2023/09/25 05:57:22;;;;;;;5.17;3.40;;;;;;;;;;5041595;28;20230;-87
2023/09/25 05:59:52;;;;;;;3.97;2.90;;;;;;;;;;5041229;28;20277;-87
2023/09/25 06:02:19;;;;;;;5.70;3.53;;;;;;;;;;5034040;28;20206;-86
2023/09/25 06:04:46;;;;;;;4.07;3.77;;;;;;;;;;5045826;28;20229;-87
2023/09/25 06:07:14;;;;;;;4.57;3.07;;;;;;;;;;5044032;28;20265;-86
2023/09/25 06:09:41;;;;;;;3.90;3.03;;;;;;;;;;5038689;28;20235;-86
2023/09/25 06:12:09;;;;;;;2.80;2.60;;;;;;;;;;5043719;28;20268;-86
2023/09/25 06:14:36;;;;;;;3.87;3.57;;;;;;;;;;5044904;28;20605;-86
2023/09/25 06:17:04;;;;;;;4.00;3.47;;;;;;;;;;5044084;28;20256;-86
2023/09/25 06:19:31;;;;;;;3.80;2.80;;;;;;;;;;5046101;28;20241;-85
2023/09/25 06:21:59;;;;;;;3.50;3.30;;;;;;;;;;5044442;28;20749;-86
2023/09/25 06:24:26;;;;;;;4.40;3.80;;;;;;;;;;5041052;28;20739;-86
2023/09/25 06:26:53;;;;;;;4.10;3.57;;;;;;;;;;5041574;28;20254;-86
2023/09/25 06:29:21;;;;;;;3.53;3.23;;;;;;;;;;5044146;28;20236;-86
2023/09/25 06:31:48;;;;;;;3.60;3.30;;;;;;;;;;5045173;28;20256;-86
2023/09/25 06:34:17;;;;;;;3.83;3.50;;;;;;;;;;5041531;28;20257;-87
2023/09/25 06:36:44;;;;;;;6.10;3.57;;;;;;;;;;5039519;28;20229;-87
2023/09/25 06:39:11;;;;;;;5.50;3.80;;;;;;;;;;5043848;28;20683;-85
2023/09/25 06:41:38;;;;;;;4.70;4.17;;;;;;;;;;5044828;28;20206;-86
2023/09/25 06:44:06;;;;;;;4.90;3.93;;;;;;;;;;5034713;28;20238;-86
2023/09/25 06:46:33;;;;;;;5.23;3.73;;;;;;;;;;5044196;28;20222;-86
2023/09/25 06:49:00;;;;;;;3.97;3.57;;;;;;;;;;5060766;28;20214;-86
2023/09/25 06:51:29;;;;;;;5.97;3.67;;;;;;;;;;5064493;28;20201;-86
2023/09/25 06:53:56;;;;;;;7.87;4.10;;;;;;;;;;5063826;28;20197;-86
2023/09/25 06:56:23;;;;;;;6.30;3.90;;;;;;;;;;5052833;28;20217;-87
2023/09/25 06:58:51;;;;;;;4.13;3.77;;;;;;;;;;5067370;28;20551;-86
2023/09/25 07:01:18;;;;;;;4.40;3.73;;;;;;;;;;5061477;28;20214;-87
2023/09/25 07:03:46;;;;;;;6.30;3.87;;;;;;;;;;5060087;28;20260;-88
2023/09/25 07:06:14;;;;;;;5.40;3.60;;;;;;;;;;5063056;28;20245;-87
2023/09/25 07:08:42;;;;;;;4.30;3.70;;;;;;;;;;5064259;28;20201;-86
2023/09/25 07:11:09;;;;;;;5.47;4.50;;;;;;;;;;5063311;28;20258;-88
2023/09/25 07:13:36;;;;;;;5.27;4.20;;;;;;;;;;5061004;28;20202;-85
2023/09/25 07:16:04;;;;;;;5.67;4.67;;;;;;;;;;5061295;28;20237;-85
2023/09/25 07:18:31;;;;;;;8.27;5.03;;;;;;;;;;5064464;28;20232;-85
2023/09/25 07:20:58;;;;;;;6.73;5.10;;;;;;;;;;5064333;28;20233;-85
2023/09/25 07:23:26;;;;;;;6.47;5.03;;;;;;;;;;5057111;28;20784;-85
2023/09/25 07:26:01;;;;;;;7.87;5.67;;;;;;;;;;5064135;28;20601;-85
2023/09/25 07:28:28;;;;;;;7.83;5.33;;;;;;;;;;5064318;28;20216;-86
2023/09/25 07:30:55;;;;;;;7.07;5.83;;;;;;;;;;5064731;28;20233;-85
2023/09/25 07:33:23;;;;;;;7.33;6.40;;;;;;;;;;5069359;28;20204;-87
2023/09/25 07:35:50;;;;;;;7.83;6.00;;;;;;;;;;5060402;28;20253;-86
2023/09/25 07:38:17;;;;;;;8.87;5.93;;;;;;;;;;5061039;28;20283;-86
2023/09/25 07:40:44;;;;;;;7.27;5.30;;;;;;;;;;5066808;28;20237;-86
2023/09/25 07:43:17;;;;;;;9.67;6.03;;;;;;;;;;5062990;28;20624;-85
2023/09/25 07:45:44;;;;;;;6.50;5.20;;;;;;;;;;5060473;28;20610;-86
2023/09/25 07:48:11;;;;;;;11.00;6.10;;;;;;;;;;5061546;28;20229;-91
2023/09/25 07:50:40;;;;;;;8.63;7.10;;;;;;;;;;5058212;28;20300;-90
2023/09/25 07:53:07;;;;;;;8.43;6.70;;;;;;;;;;5064501;28;20233;-89
2023/09/25 07:55:34;;;;;;;9.23;6.70;;;;;;;;;;5063806;28;20656;-89
2023/09/25 07:58:03;;;;;;;10.13;6.97;;;;;;;;;;5056032;28;20607;-89
2023/09/25 08:00:37;;;;;;;11.97;7.53;;;;;;;;;;5063988;28;20229;-89
2023/09/25 08:03:05;;;;;;;10.47;7.07;;;;;;;;;;5064278;28;20201;-89
2023/09/25 08:05:32;;;;;;;8.30;6.87;;;;;;;;;;5060418;28;20222;-88
2023/09/25 08:07:59;;;;;;;7.63;6.50;;;;;;;;;;5060743;28;20595;-88
2023/09/25 08:10:26;;;;;;;7.13;6.43;;;;;;;;;;5060402;28;20233;-88
2023/09/25 08:12:54;;;;;;;8.20;5.60;;;;;;;;;;5061418;28;20198;-89
2023/09/25 08:15:21;;;;;;;6.17;4.70;;;;;;;;;;5065979;28;20647;-89
2023/09/25 08:17:49;;;;;;;3.97;3.53;;;;;;;;;;5068871;28;20662;-89
2023/09/25 08:20:20;;;;;;;2.63;2.43;;;;;;;;;;5071836;28;20225;-89
2023/09/25 08:22:47;;;;;;;2.80;2.60;;;;;;;;;;5071016;28;20205;-89
2023/09/25 08:25:15;;;;;;;2.63;2.43;;;;;;;;;;5059493;28;20272;-88
2023/09/25 08:27:42;;;;;;;3.40;2.70;;;;;;;;;;5067752;28;20217;-88
2023/09/25 08:30:09;;;;;;;2.70;2.50;;;;;;;;;;5066240;28;20707;-88
2023/09/25 08:32:37;;;;;;;2.10;2.00;;;;;;;;;;5064308;28;20206;-89
2023/09/25 08:35:09;;;;;;;2.00;1.80;;;;;;;;;;5063512;28;20229;-88
2023/09/25 08:37:36;;;;;;;2.00;1.80;;;;;;;;;;5067533;28;20232;-89
2023/09/25 08:40:05;;;;;;;2.30;2.10;;;;;;;;;;5067016;28;20221;-90
2023/09/25 08:42:32;;;;;;;2.40;2.20;;;;;;;;;;5056704;28;20229;-91
2023/09/25 08:45:01;;;;;;;2.10;2.00;;;;;;;;;;5063712;28;20777;-89
2023/09/25 08:47:29;;;;;;;3.00;1.70;;;;;;;;;;5067654;28;20222;-90
2023/09/25 08:49:57;;;;;;;1.73;1.63;;;;;;;;;;5059998;28;20321;-90
2023/09/25 08:52:25;;;;;;;1.97;1.80;;;;;;;;;;5064123;28;20574;-91
2023/09/25 08:54:53;;;;;;;2.07;1.90;;;;;;;;;;5062113;28;20225;-90
2023/09/25 08:57:22;;;;;;;2.67;2.07;;;;;;;;;;5065061;28;20225;-91
2023/09/25 08:59:50;;;;;;;2.60;1.83;;;;;;;;;;5061466;28;20702;-90
2023/09/25 09:02:17;;;;;;;1.83;1.73;;;;;;;;;;5059389;28;20287;-90
2023/09/25 09:04:45;;;;;;;2.63;1.80;;;;;;;;;;5066985;28;20228;-90
2023/09/25 09:07:14;;;;;;;1.87;1.60;;;;;;;;;;5067138;28;20248;-90
2023/09/25 09:09:43;;;;;;;2.30;1.73;;;;;;;;;;5067141;28;20226;-89
2023/09/25 09:12:10;;;;;;;1.70;1.60;;;;;;;;;;5066839;28;20208;-89
2023/09/25 09:14:38;;;;;;;1.40;1.30;;;;;;;;;;5063320;28;20230;-89
2023/09/25 09:17:06;;;;;;;3.25;1.75;;;;;;;;;;5063567;28;20741;-88
2023/09/25 09:19:37;;;;;;;2.25;1.55;;;;;;;;;;5054981;28;20230;-89
2023/09/25 09:22:05;;;;;;;1.63;1.52;;;;;;;;;;5071518;28;20208;-89
2023/09/25 09:24:33;;;;;;;1.50;1.40;;;;;;;;;;5054730;28;20722;-89
2023/09/25 09:27:05;;;;;;;3.92;1.25;;;;;;;;;;5062968;28;20229;-88
2023/09/25 09:29:35;;;;;;;1.80;1.70;;;;;;;;;;5058946;28;20296;-88
2023/09/25 09:32:02;;;;;;;1.50;1.40;;;;;;;;;;5068669;28;20216;-88
2023/09/25 09:34:30;;;;;;;1.55;1.40;;;;;;;;;;5063121;28;20230;-88
2023/09/25 09:36:57;;;;;;;2.50;1.33;;;;;;;;;;5062937;28;20723;-88
2023/09/25 09:39:25;;;;;;;1.40;1.30;;;;;;;;;;5065467;28;20613;-89
2023/09/25 09:41:53;;;;;;;1.88;1.50;;;;;;;;;;5066873;28;20631;-88
2023/09/25 09:44:21;;;;;;;1.08;1.08;;;;;;;;;;5066056;28;20240;-88
2023/09/25 09:46:50;;;;;;;1.45;1.35;;;;;;;;;;5060511;28;20230;-88
2023/09/25 09:49:19;;;;;;;1.15;1.05;;;;;;;;;;5045720;28;20617;-87
2023/09/25 09:51:46;;;;;;;1.27;1.17;;;;;;;;;;5046082;28;20202;-89
2023/09/25 09:54:14;;;;;;;2.92;1.48;;;;;;;;;;5044896;28;20236;-88
2023/09/25 09:56:41;;;;;;;2.83;1.38;;;;;;;;;;5042828;28;20226;-88
2023/09/25 09:59:08;;;;;;;1.38;1.20;;;;;;;;;;5042224;28;20257;-87
2023/09/25 10:01:37;;;;;;;1.33;1.23;;;;;;;;;;5046502;28;20214;-87
2023/09/25 10:04:06;;;;;;;1.55;1.33;;;;;;;;;;5045573;28;20727;-89
2023/09/25 10:06:37;;;;;;;1.02;1.02;;;;;;;;;;5037711;28;20222;-89
2023/09/25 10:09:09;;;;;;;1.15;1.05;;;;;;;;;;5045291;28;20245;-88
2023/09/25 10:11:36;;;;;;;1.45;1.20;;;;;;;;;;5034666;28;20202;-89
2023/09/25 10:14:04;;;;;;;1.60;1.20;;;;;;;;;;5049462;28;20237;-88
2023/09/25 10:16:31;;;;;;;2.35;1.38;;;;;;;;;;5037346;28;20272;-88
2023/09/25 10:19:00;;;;;;;1.63;1.10;;;;;;;;;;5038673;28;20225;-88
2023/09/25 10:21:27;;;;;;;1.10;1.10;;;;;;;;;;5042363;28;20210;-89
2023/09/25 10:23:54;;;;;;;1.67;1.35;;;;;;;;;;5042695;28;20199;-88
2023/09/25 10:26:22;;;;;;;2.67;1.23;;;;;;;;;;5044521;28;20268;-87
2023/09/25 10:28:58;;;;;;;1.35;1.25;;;;;;;;;;5040433;28;20225;-88
2023/09/25 10:31:29;;;;;;;4.25;1.30;;;;;;;;;;5045044;28;20232;-89
2023/09/25 10:33:57;;;;;;;1.30;1.20;;;;;;;;;;5045031;28;20205;-89
2023/09/25 10:36:37;;;;;;;1.35;1.25;;;;;;;;;;5043121;28;20259;-89
2023/09/25 10:39:07;;;;;;;1.30;1.20;;;;;;;;;;5040859;28;20368;-89
2023/09/25 10:41:34;;;;;;;1.67;1.38;;;;;;;;;;5045074;28;20653;-89
2023/09/25 10:44:01;;;;;;;1.20;1.10;;;;;;;;;;5044706;28;20209;-89
2023/09/25 10:46:28;;;;;;;1.65;1.20;;;;;;;;;;5042242;28;20233;-89
2023/09/25 10:48:56;;;;;;;2.00;1.08;;;;;;;;;;5041008;28;20198;-89
2023/09/25 10:51:23;;;;;;;2.45;1.20;;;;;;;;;;5043005;28;20206;-90
2023/09/25 10:53:51;;;;;;;1.08;1.08;;;;;;;;;;5044399;28;20233;-89
2023/09/25 10:56:18;;;;;;;1.20;1.10;;;;;;;;;;5043679;28;20210;-89
2023/09/25 10:58:47;;;;;;;1.08;0.98;;;;;;;;;;5040688;28;20584;-88
2023/09/25 11:01:14;;;;;;;1.20;1.05;;;;;;;;;;5041889;28;20206;-89
2023/09/25 11:03:42;;;;;;;1.52;1.10;;;;;;;;;;5044701;28;20690;-89
2023/09/25 11:06:09;;;;;;;1.40;1.30;;;;;;;;;;5044610;28;20214;-89
2023/09/25 11:08:36;;;;;;;1.50;1.17;;;;;;;;;;5041324;28;20226;-90
2023/09/25 11:11:04;;;;;;;1.35;1.20;;;;;;;;;;5039874;28;20237;-88
2023/09/25 11:13:31;;;;;;;1.25;1.20;;;;;;;;;;5041967;28;20723;-89
2023/09/25 11:16:00;;;;;;;2.03;1.13;;;;;;;;;;5038766;28;20641;-89
2023/09/25 11:18:27;;;;;;;1.33;1.23;;;;;;;;;;5044310;28;20730;-89
2023/09/25 11:20:57;;;;;;;1.20;1.10;;;;;;;;;;5038466;28;20235;-88
2023/09/25 11:23:25;;;;;;;2.65;1.20;;;;;;;;;;5042778;28;20214;-89
2023/09/25 11:25:53;;;;;;;1.42;1.08;;;;;;;;;;5043898;28;20221;-89
2023/09/25 11:28:22;;;;;;;1.27;1.02;;;;;;;;;;5042814;28;20604;-89
2023/09/25 11:30:50;;;;;;;1.35;1.00;;;;;;;;;;5040757;28;20230;-90
2023/09/25 11:33:19;;;;;;;1.10;1.00;;;;;;;;;;5041144;28;20213;-89
2023/09/25 11:35:47;;;;;;;1.35;1.15;;;;;;;;;;5040640;28;20314;-90
2023/09/25 11:38:15;;;;;;;0.90;0.90;;;;;;;;;;5040846;28;20234;-90
2023/09/25 11:40:44;;;;;;;1.70;1.08;;;;;;;;;;5040563;28;20301;-88
2023/09/25 11:43:12;;;;;;;1.30;1.20;;;;;;;;;;5041445;28;20673;-90
2023/09/25 11:45:41;;;;;;;1.00;0.90;;;;;;;;;;5032750;28;20226;-88
2023/09/25 11:48:09;;;;;;;0.98;0.88;;;;;;;;;;5065571;28;20225;-90
2023/09/25 11:50:37;;;;;;;1.42;1.23;;;;;;;;;;5068504;28;20251;-89
2023/09/25 11:53:04;;;;;;;1.35;1.15;;;;;;;;;;5068668;28;20682;-89
2023/09/25 11:55:31;;;;;;;1.63;1.05;;;;;;;;;;5065622;28;20236;-89
2023/09/25 11:57:59;;;;;;;1.60;1.15;;;;;;;;;;5063517;28;20224;-88
2023/09/25 12:00:27;;;;;;;0.95;0.80;;;;;;;;;;5065897;28;20229;-89
2023/09/25 12:02:56;;;;;;;0.80;0.80;;;;;;;;;;5057100;28;20210;-90
2023/09/25 12:05:24;;;;;;;0.93;0.93;;;;;;;;;;5065375;28;20699;-89
2023/09/25 12:07:51;;;;;;;1.02;0.90;;;;;;;;;;5068332;28;20221;-88
2023/09/25 12:10:19;;;;;;;1.85;0.93;;;;;;;;;;5067151;28;20304;-89
2023/09/25 12:12:47;;;;;;;1.92;1.15;;;;;;;;;;5064655;28;20297;-89
2023/09/25 12:15:14;;;;;;;1.45;1.17;;;;;;;;;;5064285;28;20233;-89
2023/09/25 12:17:42;;;;;;;1.98;1.27;;;;;;;;;;5065051;28;20222;-90
2023/09/25 12:20:13;;;;;;;2.80;0.82;;;;;;;;;;5064277;28;20287;-90
2023/09/25 12:22:41;;;;;;;1.38;0.90;;;;;;;;;;5064643;28;20205;-89
2023/09/25 12:25:12;;;;;;;3.05;1.45;;;;;;;;;;5064312;28;20229;-89
2023/09/25 12:27:39;;;;;;;1.05;0.95;;;;;;;;;;5067849;28;20248;-89
2023/09/25 12:30:09;;;;;;;1.33;1.23;;;;;;;;;;5067160;28;20278;-89
2023/09/25 12:32:36;;;;;;;0.95;0.88;;;;;;;;;;5064882;28;20213;-89
2023/09/25 12:35:03;;;;;;;3.70;1.05;;;;;;;;;;5063597;28;20229;-90
2023/09/25 12:37:32;;;;;;;1.65;0.90;;;;;;;;;;5066277;28;20313;-90
2023/09/25 12:39:59;;;;;;;0.73;0.68;;;;;;;;;;5061749;28;20707;-90
2023/09/25 12:42:26;;;;;;;1.23;1.00;;;;;;;;;;5064614;28;20210;-90
2023/09/25 12:44:53;;;;;;;0.90;0.88;;;;;;;;;;5066496;28;20295;-90
2023/09/25 12:47:21;;;;;;;0.80;0.80;;;;;;;;;;5056466;28;20226;-90
2023/09/25 12:49:49;;;;;;;0.90;0.90;;;;;;;;;;5052896;28;20308;-91
2023/09/25 12:52:16;;;;;;;1.10;1.00;;;;;;;;;;5049880;28;20226;-90
2023/09/25 12:54:45;;;;;;;1.90;1.00;;;;;;;;;;5045545;28;20241;-90
2023/09/25 12:57:13;;;;;;;1.20;1.13;;;;;;;;;;5052655;28;20253;-89
2023/09/25 12:59:40;;;;;;;0.98;0.90;;;;;;;;;;5044707;28;20233;-89
2023/09/25 13:02:07;;;;;;;1.20;0.90;;;;;;;;;;5044656;28;20199;-90
2023/09/25 13:04:34;;;;;;;1.23;1.10;;;;;;;;;;5053741;28;20707;-87
2023/09/25 13:07:01;;;;;;;1.10;0.90;;;;;;;;;;5051287;28;20230;-90
2023/09/25 13:09:29;;;;;;;1.13;1.08;;;;;;;;;;5041013;28;20265;-90
2023/09/25 13:11:57;;;;;;;1.20;1.10;;;;;;;;;;5049233;28;20206;-90
2023/09/25 13:14:24;;;;;;;1.27;1.00;;;;;;;;;;5041109;28;20246;-91
2023/09/25 13:16:51;;;;;;;1.77;1.10;;;;;;;;;;5049323;28;20313;-90
2023/09/25 13:19:20;;;;;;;1.50;0.90;;;;;;;;;;5048437;28;20266;-91
2023/09/25 13:21:47;;;;;;;2.05;0.90;;;;;;;;;;5018431;28;20639;-90
2023/09/25 13:24:15;;;;;;;1.15;0.93;;;;;;;;;;5040905;28;20242;-91
2023/09/25 13:26:42;;;;;;;1.25;0.98;;;;;;;;;;5048235;28;20229;-90
2023/09/25 13:29:10;;;;;;;1.20;1.10;;;;;;;;;;5049648;28;20575;-91
2023/09/25 13:31:39;;;;;;;1.50;0.90;;;;;;;;;;5048212;28;20211;-90
2023/09/25 13:34:06;;;;;;;1.30;0.98;;;;;;;;;;5049180;28;20315;-90
2023/09/25 13:36:34;;;;;;;1.10;0.95;;;;;;;;;;5055465;28;20283;-91
2023/09/25 13:39:01;;;;;;;1.15;0.95;;;;;;;;;;5045404;28;20206;-91
2023/09/25 13:41:29;;;;;;;1.20;1.00;;;;;;;;;;5047011;28;20588;-91
2023/09/25 13:43:56;;;;;;;1.20;1.10;;;;;;;;;;5043580;28;20217;-90
2023/09/25 13:46:24;;;;;;;1.30;1.20;;;;;;;;;;5046910;28;20221;-91
2023/09/25 13:48:51;;;;;;;0.93;0.90;;;;;;;;;;5065958;28;20699;-87
2023/09/25 13:51:18;;;;;;;1.20;0.90;;;;;;;;;;5066083;28;20217;-87
2023/09/25 13:53:46;;;;;;;1.08;1.02;;;;;;;;;;5061888;28;20652;-89
2023/09/25 13:56:14;;;;;;;0.98;0.90;;;;;;;;;;5062169;28;20691;-87
2023/09/25 13:58:41;;;;;;;1.65;1.10;;;;;;;;;;5065432;28;20216;-88
2023/09/25 14:01:08;;;;;;;2.33;1.10;;;;;;;;;;5072895;28;20232;-85
2023/09/25 14:03:37;;;;;;;1.20;1.10;;;;;;;;;;5063886;28;20206;-87
2023/09/25 14:06:05;;;;;;;1.30;1.20;;;;;;;;;;5067764;28;20253;-86
2023/09/25 14:08:32;;;;;;;0.93;0.85;;;;;;;;;;5063673;28;20249;-86
2023/09/25 14:10:59;;;;;;;1.27;1.17;;;;;;;;;;5059148;28;20225;-87
2023/09/25 14:13:27;;;;;;;1.15;1.05;;;;;;;;;;5064254;28;20300;-86
2023/09/25 14:15:54;;;;;;;1.60;0.98;;;;;;;;;;5061437;28;20226;-88
2023/09/25 14:18:21;;;;;;;1.10;1.00;;;;;;;;;;5061684;28;20230;-87
2023/09/25 14:20:50;;;;;;;0.80;0.80;;;;;;;;;;5053732;28;20225;-87
2023/09/25 14:23:17;;;;;;;1.20;1.10;;;;;;;;;;5061582;28;20704;-87
2023/09/25 14:25:44;;;;;;;3.05;1.40;;;;;;;;;;5062121;28;20226;-88
2023/09/25 14:28:11;;;;;;;1.02;1.00;;;;;;;;;;5060649;28;20218;-87
2023/09/25 14:30:38;;;;;;;1.33;1.23;;;;;;;;;;5065050;28;20237;-87
2023/09/25 14:33:06;;;;;;;1.35;1.13;;;;;;;;;;5066197;28;20212;-88
2023/09/25 14:35:33;;;;;;;1.98;1.88;;;;;;;;;;5065627;28;20233;-87
2023/09/25 14:38:02;;;;;;;1.13;0.98;;;;;;;;;;5065911;28;20711;-88
2023/09/25 14:40:29;;;;;;;2.05;1.38;;;;;;;;;;5056874;28;20241;-88
2023/09/25 14:42:56;;;;;;;1.17;1.00;;;;;;;;;;5065568;28;20197;-88
2023/09/25 14:45:23;;;;;;;1.25;1.15;;;;;;;;;;5065269;28;20248;-88